Time;durP1;ratioP1;P1;durP2;ratioP2;P2;SDS_P1;SDS_P2;PMS_P1;PMS_P2;Temp;Humidity;BMP_temperature;BMP_pressure;BME280_temperature;BME280_humidity;BME280_pressure;Samples;Min_cycle;Max_cycle;Signal;HPM_P1;HPM_P2
2021/11/28 00:03:21;;;;;;;1.70;0.77;;;20.70;25.10;21.20;91741.00;;;;10399766;28;45583;-65
2021/11/28 00:18:30;;;;;;;1.90;0.90;;;20.60;25.00;21.10;91750.00;;;;10396655;28;45547;-63
2021/11/28 00:23:31;;;;;;;1.35;0.80;;;20.60;25.00;21.20;91736.00;;;;10397609;28;46633;-65
2021/11/28 00:28:32;;;;;;;1.38;0.70;;;20.70;25.10;21.20;91755.00;;;;10397014;28;46553;-62
2021/11/28 00:33:33;;;;;;;0.80;0.60;;;20.60;25.10;21.10;91748.00;;;;10399056;28;45218;-65
2021/11/28 00:38:34;;;;;;;0.65;0.60;;;20.60;25.00;21.20;91737.00;;;;10395512;28;46017;-62
2021/11/28 00:43:35;;;;;;;1.45;0.50;;;20.60;25.00;21.10;91742.00;;;;10397788;28;45326;-63
2021/11/28 00:48:38;;;;;;;0.93;0.57;;;20.60;25.00;21.10;91745.00;;;;10396073;28;45569;-62
2021/11/28 00:53:39;;;;;;;0.90;0.60;;;20.60;25.00;21.10;91746.00;;;;10380788;28;45862;-63
2021/11/28 00:58:39;;;;;;;1.35;0.70;;;20.60;25.00;21.10;91777.00;;;;10395976;28;45696;-64
2021/11/28 01:03:40;;;;;;;1.17;0.60;;;20.60;25.00;21.10;91773.00;;;;10380187;28;48164;-61
2021/11/28 01:08:41;;;;;;;1.00;0.60;;;20.60;25.00;21.10;91753.00;;;;10395298;28;46276;-63
2021/11/28 01:13:42;;;;;;;1.23;0.63;;;20.60;25.00;21.10;91761.00;;;;10395958;28;47010;-63
2021/11/28 01:18:43;;;;;;;1.17;0.60;;;20.60;25.00;21.10;91768.00;;;;10396000;28;45135;-62
2021/11/28 01:23:44;;;;;;;1.20;0.80;;;20.60;25.00;21.10;91751.00;;;;10397507;28;45202;-61
2021/11/28 01:28:45;;;;;;;0.93;0.60;;;20.60;24.90;21.00;91751.00;;;;10396793;28;45244;-64
2021/11/28 01:33:45;;;;;;;0.88;0.60;;;20.60;25.00;21.10;91774.00;;;;10396364;28;46178;-65
2021/11/28 01:38:46;;;;;;;1.17;0.57;;;20.60;25.00;21.10;91767.00;;;;10394970;28;45271;-62
2021/11/28 01:43:51;;;;;;;1.15;0.68;;;20.50;24.90;21.00;91787.00;;;;10395809;28;45425;-65
2021/11/28 01:48:52;;;;;;;0.68;0.50;;;20.50;25.00;21.00;91783.00;;;;10378236;28;47500;-62
2021/11/28 01:53:55;;;;;;;0.60;0.60;;;20.50;25.00;21.00;91782.00;;;;10395173;28;45159;-61
2021/11/28 01:58:56;;;;;;;0.95;0.60;;;20.50;24.90;21.00;91775.00;;;;10393758;28;46669;-65
2021/11/28 02:03:56;;;;;;;1.20;0.60;;;20.50;25.00;21.00;91760.00;;;;10372799;28;47119;-65
2021/11/28 02:08:57;;;;;;;0.88;0.43;;;20.50;24.90;21.00;91776.00;;;;10376525;28;47980;-63
2021/11/28 02:13:58;;;;;;;1.33;0.70;;;20.50;24.90;21.00;91758.00;;;;10394496;28;45464;-61
2021/11/28 02:19:00;;;;;;;0.70;0.50;;;20.50;25.00;21.00;91764.00;;;;10393891;28;46020;-63
2021/11/28 02:24:01;;;;;;;1.77;0.70;;;20.50;25.00;21.00;91777.00;;;;10393968;28;47205;-62
2021/11/28 02:29:02;;;;;;;1.60;0.60;;;20.50;24.90;21.00;91751.00;;;;10393819;28;45230;-62
2021/11/28 02:34:03;;;;;;;0.70;0.40;;;20.50;24.90;21.00;91758.00;;;;10393378;28;45426;-63
2021/11/28 02:39:04;;;;;;;0.80;0.45;;;20.50;25.00;21.00;91742.00;;;;10393977;28;46297;-61
2021/11/28 02:44:05;;;;;;;0.47;0.35;;;20.50;25.00;21.00;91751.00;;;;10393806;28;45543;-62
2021/11/28 02:49:05;;;;;;;0.50;0.40;;;20.50;25.00;21.00;91742.00;;;;10376584;28;48100;-62
2021/11/28 02:54:07;;;;;;;0.77;0.47;;;20.50;25.00;20.90;91732.00;;;;10394780;28;45626;-62
2021/11/28 02:59:08;;;;;;;1.73;0.40;;;20.50;25.00;21.00;91742.00;;;;10391963;28;46955;-65
2021/11/28 03:04:09;;;;;;;0.57;0.38;;;20.50;25.00;21.00;91730.00;;;;10392239;28;45448;-64
2021/11/28 03:09:10;;;;;;;0.25;0.22;;;20.50;25.00;20.90;91738.00;;;;10375745;28;47039;-61
2021/11/28 03:14:10;;;;;;;0.52;0.30;;;20.50;25.00;21.00;91740.00;;;;10375783;28;47974;-64
2021/11/28 03:19:11;;;;;;;0.85;0.40;;;20.50;25.00;20.90;91734.00;;;;10392402;28;46380;-62
2021/11/28 03:24:12;;;;;;;0.30;0.20;;;20.40;25.00;20.90;91738.00;;;;10393827;28;45539;-63
2021/11/28 03:29:18;;;;;;;0.80;0.30;;;20.40;24.90;20.90;91731.00;;;;10392997;28;45377;-61
2021/11/28 03:34:20;;;;;;;0.35;0.28;;;20.50;25.50;20.90;91724.00;;;;10392960;28;46331;-65
2021/11/28 03:39:26;;;;;;;0.68;0.30;;;20.50;25.00;20.90;91738.00;;;;10392113;28;46973;-61
2021/11/28 03:44:29;;;;;;;1.20;0.32;;;20.40;25.00;20.90;91736.00;;;;10393050;28;46096;-62
2021/11/28 03:49:30;;;;;;;0.45;0.20;;;20.40;25.00;20.90;91747.00;;;;10391846;28;47038;-63
2021/11/28 03:54:31;;;;;;;0.90;0.25;;;20.50;25.00;20.90;91746.00;;;;10391614;28;45613;-61
2021/11/28 03:59:32;;;;;;;0.38;0.20;;;20.40;24.90;20.90;91754.00;;;;10391265;28;46491;-64
2021/11/28 04:04:33;;;;;;;0.40;0.22;;;20.50;25.00;20.90;91754.00;;;;10393410;28;45309;-63
2021/11/28 04:09:34;;;;;;;0.65;0.25;;;20.50;25.00;20.90;91738.00;;;;10391971;28;45402;-65
2021/11/28 04:14:34;;;;;;;1.02;0.30;;;20.50;24.90;20.90;91738.00;;;;10397075;28;45340;-63
2021/11/28 04:19:35;;;;;;;0.70;0.32;;;20.40;25.00;20.90;91750.00;;;;10397904;28;45445;-62
2021/11/28 04:24:36;;;;;;;1.27;0.60;;;20.40;25.00;20.90;91747.00;;;;10399319;28;45345;-62
2021/11/28 04:29:37;;;;;;;1.98;0.90;;;20.40;25.00;20.90;91761.00;;;;10396587;28;45434;-63
2021/11/28 04:34:37;;;;;;;1.77;0.82;;;20.40;25.00;20.90;91758.00;;;;10397301;28;45265;-62
2021/11/28 04:39:38;;;;;;;2.03;0.98;;;20.40;25.00;20.90;91742.00;;;;10397451;28;46320;-65
2021/11/28 04:44:39;;;;;;;2.33;1.00;;;20.40;25.00;20.90;91747.00;;;;10380765;28;47179;-63
2021/11/28 04:49:44;;;;;;;1.98;0.98;;;20.40;25.00;20.90;91732.00;;;;10395598;28;47685;-64
2021/11/28 04:54:44;;;;;;;2.28;0.90;;;20.50;25.10;20.90;91730.00;;;;10396477;28;48304;-63
2021/11/28 04:59:47;;;;;;;1.75;0.90;;;20.50;25.10;20.90;91743.00;;;;10395067;28;46536;-65
2021/11/28 05:04:47;;;;;;;1.10;0.70;;;20.40;25.10;20.90;91740.00;;;;10396441;28;45337;-63
2021/11/28 05:09:48;;;;;;;2.00;0.90;;;20.50;25.10;21.00;91740.00;;;;10395485;28;45254;-63
2021/11/28 05:14:49;;;;;;;1.55;0.85;;;20.50;25.10;21.10;91745.00;;;;10396718;28;45665;-63
2021/11/28 05:19:50;;;;;;;1.38;0.88;;;20.50;25.10;21.10;91747.00;;;;10378064;28;47012;-62
2021/11/28 05:24:52;;;;;;;1.75;0.98;;;20.50;25.10;21.10;91756.00;;;;10395544;28;45208;-62
2021/11/28 05:29:52;;;;;;;1.25;0.50;;;20.60;25.20;21.10;91747.00;;;;10396048;28;45555;-62
2021/11/28 05:34:53;;;;;;;1.65;0.70;;;20.60;25.20;21.20;91735.00;;;;10396706;28;46154;-65
2021/11/28 05:39:54;;;;;;;1.65;0.90;;;20.60;25.20;21.20;91749.00;;;;10394641;28;46209;-64
2021/11/28 05:44:55;;;;;;;1.52;0.77;;;20.60;25.10;21.20;91752.00;;;;10378089;28;47133;-62
2021/11/28 05:49:55;;;;;;;1.17;0.50;;;20.60;25.10;21.20;91758.00;;;;10396170;28;45181;-66
2021/11/28 05:54:56;;;;;;;2.00;0.90;;;20.70;25.20;21.20;91754.00;;;;10395069;28;46436;-63
2021/11/28 05:59:57;;;;;;;1.05;0.60;;;20.70;25.10;21.20;91746.00;;;;10393885;28;45420;-62
2021/11/28 06:04:58;;;;;;;1.67;0.80;;;20.70;25.10;21.20;91736.00;;;;10394161;28;45580;-63
2021/11/28 06:09:59;;;;;;;1.48;0.80;;;20.70;25.10;21.20;91752.00;;;;10393308;28;46471;-62
2021/11/28 06:14:59;;;;;;;0.95;0.60;;;20.70;25.00;21.20;91750.00;;;;10394964;28;45572;-62
2021/11/28 06:20:00;;;;;;;1.10;0.60;;;20.70;25.00;21.30;91753.00;;;;10393035;28;46036;-63
2021/11/28 06:25:01;;;;;;;1.10;0.60;;;20.70;25.00;21.30;91764.00;;;;10394639;28;45347;-63
2021/11/28 06:30:05;;;;;;;0.68;0.55;;;20.80;25.10;21.30;91762.00;;;;10376010;28;47242;-63
2021/11/28 06:35:07;;;;;;;1.77;0.50;;;20.80;25.10;21.30;91764.00;;;;10393830;28;45449;-62
2021/11/28 06:40:08;;;;;;;0.60;0.50;;;20.80;25.10;21.30;91757.00;;;;10392390;28;45255;-63
2021/11/28 06:45:10;;;;;;;1.15;0.57;;;20.80;25.10;21.30;91759.00;;;;10393927;28;46617;-62
2021/11/28 06:50:11;;;;;;;1.00;0.63;;;20.80;25.10;21.30;91768.00;;;;10392317;28;45483;-62
2021/11/28 06:55:12;;;;;;;1.13;0.60;;;20.80;25.10;21.30;91759.00;;;;10392736;28;45554;-62
2021/11/28 07:00:14;;;;;;;1.05;0.50;;;20.80;25.10;21.40;91774.00;;;;10375418;28;47140;-62
2021/11/28 07:05:14;;;;;;;0.70;0.50;;;20.80;25.10;21.30;91766.00;;;;10392423;28;47049;-62
2021/11/28 07:10:15;;;;;;;0.80;0.55;;;20.80;25.10;21.40;91774.00;;;;10390940;28;46534;-63
2021/11/28 07:15:16;;;;;;;1.08;0.52;;;20.80;25.10;21.40;91773.00;;;;10393529;28;45446;-62
2021/11/28 07:20:18;;;;;;;0.95;0.60;;;20.80;25.10;21.40;91781.00;;;;10389529;28;45370;-63
2021/11/28 07:25:19;;;;;;;0.95;0.52;;;20.80;25.10;21.40;91774.00;;;;10393309;28;46444;-62
2021/11/28 07:30:19;;;;;;;1.05;0.70;;;20.80;25.10;21.40;91787.00;;;;10393016;28;45246;-62
2021/11/28 07:35:20;;;;;;;1.33;0.73;;;20.80;25.10;21.40;91791.00;;;;10345247;28;46931;-62
2021/11/28 07:40:21;;;;;;;0.82;0.60;;;20.90;25.10;21.40;91782.00;;;;10333954;28;48249;-61
2021/11/28 07:45:22;;;;;;;0.80;0.50;;;20.90;25.20;21.40;91790.00;;;;10352679;28;45301;-63
2021/11/28 07:50:22;;;;;;;0.60;0.52;;;20.80;25.10;21.40;91809.00;;;;10358427;28;46402;-65
2021/11/28 07:55:23;;;;;;;2.08;0.70;;;20.90;25.20;21.40;91793.00;;;;10358435;28;46532;-64
2021/11/28 08:00:24;;;;;;;0.95;0.60;;;20.90;25.20;21.40;91784.00;;;;10340431;28;47290;-63
2021/11/28 08:05:25;;;;;;;1.00;0.60;;;20.90;25.10;21.40;91798.00;;;;10356757;28;45436;-62
2021/11/28 08:10:27;;;;;;;1.35;0.50;;;20.90;25.20;21.30;91778.00;;;;10339441;28;46971;-62
2021/11/28 08:15:27;;;;;;;1.20;0.60;;;20.80;25.30;21.40;91787.00;;;;10337443;28;45365;-66
2021/11/28 08:20:28;;;;;;;0.85;0.40;;;20.90;25.20;21.40;91786.00;;;;10348699;28;45203;-62
2021/11/28 08:25:29;;;;;;;0.80;0.40;;;20.90;25.20;21.50;91786.00;;;;10336318;28;47159;-63
2021/11/28 08:30:29;;;;;;;0.63;0.47;;;20.90;25.30;21.40;91786.00;;;;10315551;28;46498;-66
2021/11/28 08:35:31;;;;;;;1.05;0.50;;;20.90;25.00;21.40;91799.00;;;;10314964;28;46512;-62
2021/11/28 08:40:32;;;;;;;0.88;0.50;;;20.90;25.10;21.30;91800.00;;;;10298006;28;48102;-62
2021/11/28 08:45:35;;;;;;;0.80;0.32;;;20.90;24.90;21.40;91821.00;;;;10303843;28;48047;-62
2021/11/28 08:50:36;;;;;;;1.02;0.30;;;20.90;24.90;21.40;91817.00;;;;10353801;28;46600;-63
2021/11/28 08:55:37;;;;;;;1.52;0.28;;;20.90;24.90;21.40;91819.00;;;;10354694;28;46973;-63
2021/11/28 09:00:38;;;;;;;1.13;0.50;;;20.90;25.00;21.40;91823.00;;;;10353936;28;47068;-63
2021/11/28 09:05:38;;;;;;;1.38;0.40;;;20.90;25.00;21.40;91815.00;;;;10354857;28;45305;-63
2021/11/28 09:10:41;;;;;;;0.90;0.30;;;20.90;25.00;21.50;91840.00;;;;10354873;28;45436;-62
2021/11/28 09:15:43;;;;;;;0.63;0.30;;;20.90;25.40;21.70;91840.00;;;;10392859;28;45585;-62
2021/11/28 09:20:45;;;;;;;0.60;0.30;;;21.10;25.30;21.80;91845.00;;;;10395009;28;46072;-62
2021/11/28 09:25:46;;;;;;;0.98;0.22;;;21.20;25.30;21.80;91829.00;;;;10394572;28;45218;-62
2021/11/28 09:30:50;;;;;;;0.70;0.20;;;21.30;25.30;21.90;91839.00;;;;10396012;28;45375;-62
2021/11/28 09:35:51;;;;;;;0.63;0.20;;;21.30;25.20;21.80;91835.00;;;;10394732;28;46549;-61
2021/11/28 09:40:53;;;;;;;0.30;0.20;;;21.30;25.20;21.70;91833.00;;;;10394482;28;46880;-63
2021/11/28 09:45:55;;;;;;;0.50;0.20;;;21.30;25.10;21.70;91839.00;;;;10394436;28;45357;-62
2021/11/28 09:50:56;;;;;;;0.40;0.20;;;21.20;25.30;21.70;91833.00;;;;10394008;28;45409;-61
2021/11/28 09:55:59;;;;;;;0.13;0.13;;;21.20;25.40;21.70;91833.00;;;;10394049;28;46444;-63
2021/11/28 10:01:00;;;;;;;0.65;0.10;;;21.20;25.50;21.70;91833.00;;;;10390698;28;46169;-68
2021/11/28 10:06:01;;;;;;;0.50;0.20;;;21.30;25.60;21.60;91839.00;;;;10394139;28;45335;-63
2021/11/28 10:11:16;;;;;;;0.30;0.17;;;21.20;25.50;21.60;91838.00;;;;10395577;28;45299;-67
2021/11/28 10:16:18;;;;;;;0.10;0.10;;;21.10;24.90;21.70;91836.00;;;;10392231;28;47235;-69
2021/11/28 10:21:19;;;;;;;0.20;0.20;;;21.20;25.30;21.70;91831.00;;;;10388390;28;45300;-67
2021/11/28 10:26:19;;;;;;;1.52;0.10;;;21.20;25.40;21.70;91822.00;;;;10388930;28;46582;-67
2021/11/28 10:31:23;;;;;;;0.50;0.20;;;21.20;25.60;21.70;91806.00;;;;10393219;28;45417;-67
2021/11/28 10:36:28;;;;;;;1.75;0.20;;;21.10;25.40;21.70;91812.00;;;;10393695;28;47070;-65
2021/11/28 10:41:29;;;;;;;0.60;0.13;;;21.20;25.60;21.70;91811.00;;;;10393117;28;47032;-66
2021/11/28 10:46:33;;;;;;;0.17;0.17;;;21.20;25.60;21.60;91799.00;;;;10392538;28;46339;-66
2021/11/28 10:51:40;;;;;;;2.13;0.40;;;21.10;25.40;21.60;91821.00;;;;10393227;28;45225;-66
2021/11/28 10:56:42;;;;;;;0.38;0.13;;;21.10;25.50;21.60;91818.00;;;;10376009;28;46885;-66
2021/11/28 11:01:42;;;;;;;0.10;0.10;;;21.10;25.50;21.60;91806.00;;;;10393752;28;45532;-62
2021/11/28 11:06:43;;;;;;;1.33;0.30;;;21.10;25.40;21.60;91810.00;;;;10367278;28;48436;-63
2021/11/28 11:11:44;;;;;;;1.08;0.20;;;21.10;25.40;21.70;91805.00;;;;10353001;28;45184;-64
2021/11/28 11:16:48;;;;;;;1.02;0.20;;;21.10;25.30;21.60;91804.00;;;;10333489;28;47280;-64
2021/11/28 11:22:18;;;;;;;0.50;0.10;;;21.10;25.30;21.60;91796.00;;;;10354561;28;47141;-64
2021/11/28 11:27:30;;;;;;;0.10;0.10;;;21.10;25.30;21.60;91791.00;;;;10357435;28;47567;-65
2021/11/28 11:32:55;;;;;;;1.23;0.10;;;21.10;25.30;21.60;91808.00;;;;10357420;28;46513;-62
2021/11/28 11:38:16;;;;;;;0.10;0.10;;;21.10;25.70;21.80;91805.00;;;;10360517;28;45962;-62
2021/11/28 11:43:18;;;;;;;0.38;0.15;;;21.20;25.30;21.80;91796.00;;;;10399258;28;45330;-62
2021/11/28 11:48:19;;;;;;;0.10;0.10;;;21.20;25.10;21.90;91800.00;;;;10378825;28;45629;-62
2021/11/28 11:53:19;;;;;;;0.25;0.10;;;21.30;25.10;21.90;91795.00;;;;10356592;28;45448;-62
2021/11/28 11:58:43;;;;;;;0.15;0.15;;;21.30;24.90;21.90;91802.00;;;;10355843;28;45413;-62
2021/11/28 12:03:47;;;;;;;0.50;0.10;;;21.40;24.80;21.90;91794.00;;;;10356474;28;45421;-62
2021/11/28 12:08:51;;;;;;;0.10;0.10;;;21.30;24.80;21.90;91799.00;;;;10356117;28;46042;-62
2021/11/28 12:13:56;;;;;;;0.35;0.10;;;21.40;24.70;21.90;91802.00;;;;10380753;28;46920;-62
2021/11/28 12:18:57;;;;;;;0.38;0.10;;;21.40;24.70;21.90;91792.00;;;;10396416;28;45178;-62
2021/11/28 12:24:16;;;;;;;0.20;0.20;;;21.30;24.60;21.90;91796.00;;;;10397029;28;45437;-62
2021/11/28 12:29:25;;;;;;;0.43;0.20;;;21.40;24.70;21.90;91782.00;;;;10412630;28;46052;-62
2021/11/28 12:34:43;;;;;;;0.50;0.50;;;21.40;24.60;21.90;91778.00;;;;10396208;28;46591;-63
2021/11/28 12:39:43;;;;;;;1.38;0.60;;;21.30;24.70;21.80;91787.00;;;;10396321;28;45456;-63
2021/11/28 12:44:50;;;;;;;1.30;0.63;;;21.30;24.60;21.70;91786.00;;;;10366132;28;46500;-63
2021/11/28 12:49:56;;;;;;;1.30;0.70;;;21.30;24.70;21.80;91798.00;;;;10332035;28;46486;-63
2021/11/28 12:55:03;;;;;;;1.45;0.70;;;21.20;24.60;21.70;91792.00;;;;10326375;28;45330;-63
2021/11/28 13:00:17;;;;;;;0.82;0.60;;;21.20;24.80;21.60;91801.00;;;;10330413;28;46750;-63
2021/11/28 13:05:34;;;;;;;1.35;0.90;;;21.20;24.90;21.60;91803.00;;;;10330804;28;46544;-63
2021/11/28 13:10:52;;;;;;;1.13;0.73;;;21.10;24.90;21.60;91794.00;;;;10334390;28;45358;-63
2021/11/28 13:15:58;;;;;;;1.73;0.70;;;21.10;25.00;21.60;91788.00;;;;10359917;28;48140;-63
2021/11/28 13:21:21;;;;;;;1.33;0.60;;;21.10;25.00;21.60;91793.00;;;;10332404;28;46935;-63
2021/11/28 13:26:25;;;;;;;0.75;0.55;;;21.10;25.10;21.60;91778.00;;;;10310223;28;46994;-63
2021/11/28 13:31:27;;;;;;;1.35;0.80;;;21.10;25.20;21.60;91780.00;;;;10340771;28;45524;-63
2021/11/28 13:36:46;;;;;;;1.25;0.60;;;21.10;25.20;21.60;91788.00;;;;10332531;28;45997;-63
2021/11/28 13:41:51;;;;;;;0.85;0.60;;;21.10;25.20;21.60;91787.00;;;;10351554;28;46363;-63
2021/11/28 13:46:55;;;;;;;1.50;0.80;;;21.10;25.20;21.60;91769.00;;;;10353179;28;45200;-63
2021/11/28 13:52:01;;;;;;;2.10;0.93;;;21.10;25.20;21.50;91787.00;;;;10352987;28;48343;-63
2021/11/28 13:57:11;;;;;;;1.10;0.77;;;21.10;25.00;21.50;91781.00;;;;10352328;28;45316;-63
2021/11/28 14:02:26;;;;;;;5.93;0.80;;;21.00;24.70;21.40;91774.00;;;;10386052;28;47057;-63
2021/11/28 14:07:35;;;;;;;3.75;0.70;;;21.00;24.50;21.50;91787.00;;;;10353299;28;45492;-63
2021/11/28 14:12:39;;;;;;;0.77;0.77;;;21.00;24.40;21.50;91786.00;;;;10362852;28;45302;-63
2021/11/28 14:17:41;;;;;;;0.70;0.55;;;21.00;24.30;21.60;91780.00;;;;10389198;28;46092;-64
2021/11/28 14:22:46;;;;;;;1.80;0.60;;;21.10;24.60;21.50;91786.00;;;;10392176;28;47068;-64
2021/11/28 14:28:32;;;;;;;1.95;0.60;;;21.10;24.70;21.50;91789.00;;;;10392968;28;45492;-64
2021/11/28 14:33:43;;;;;;;0.65;0.50;;;21.00;24.80;21.60;91793.00;;;;10392998;28;47305;-64
2021/11/28 14:38:52;;;;;;;0.70;0.60;;;21.00;24.90;21.60;91789.00;;;;10376476;28;47708;-64
2021/11/28 14:44:00;;;;;;;1.75;0.70;;;21.00;25.00;21.60;91792.00;;;;10392594;28;47964;-64
2021/11/28 14:49:30;;;;;;;2.22;0.90;;;21.10;25.10;21.50;91798.00;;;;10387116;28;46260;-64
2021/11/28 14:54:35;;;;;;;3.15;1.65;;;21.00;25.00;21.60;91770.00;;;;10361829;28;46165;-63
2021/11/28 14:59:44;;;;;;;3.53;1.88;;;21.10;25.10;21.60;91783.00;;;;10351175;28;45428;-63
2021/11/28 15:04:46;;;;;;;4.03;2.10;;;21.10;25.40;21.70;91785.00;;;;10351258;28;46836;-66
2021/11/28 15:09:50;;;;;;;2.88;1.92;;;21.10;25.40;21.70;91785.00;;;;10350337;28;48208;-65
2021/11/28 15:15:04;;;;;;;2.83;1.80;;;21.10;25.60;21.70;91787.00;;;;10383256;28;46860;-64
2021/11/28 15:20:19;;;;;;;2.95;1.58;;;21.20;25.70;21.70;91786.00;;;;10391317;28;47220;-67
2021/11/28 15:25:24;;;;;;;2.10;1.20;;;21.20;25.80;21.70;91779.00;;;;10357251;28;46136;-63
2021/11/28 15:30:28;;;;;;;2.40;1.05;;;21.20;25.80;21.70;91780.00;;;;10352254;28;46323;-63
2021/11/28 15:35:30;;;;;;;1.65;1.23;;;21.20;25.90;21.80;91786.00;;;;10345783;28;46687;-65
2021/11/28 15:40:34;;;;;;;2.45;1.30;;;21.20;25.90;21.80;91795.00;;;;10334155;28;45342;-65
2021/11/28 15:45:34;;;;;;;2.47;1.20;;;21.30;26.00;21.90;91789.00;;;;10327252;28;46998;-65
2021/11/28 15:50:35;;;;;;;1.85;0.80;;;21.30;26.80;21.90;91803.00;;;;10350034;28;45363;-65
2021/11/28 15:55:37;;;;;;;1.85;0.90;;;21.40;26.60;22.00;91779.00;;;;10349888;28;45150;-64
2021/11/28 16:00:38;;;;;;;2.78;0.80;;;21.40;26.50;22.00;91781.00;;;;10348776;28;47063;-66
2021/11/28 16:05:38;;;;;;;0.90;0.68;;;21.40;26.30;22.00;91786.00;;;;10358453;28;46578;-65
2021/11/28 16:10:39;;;;;;;1.17;0.80;;;21.50;26.30;22.00;91782.00;;;;10350474;28;47353;-66
2021/11/28 16:15:40;;;;;;;0.80;0.70;;;21.50;26.20;22.10;91802.00;;;;10356537;28;47143;-69
2021/11/28 16:20:41;;;;;;;1.70;0.93;;;21.50;26.20;22.10;91797.00;;;;10356796;28;45654;-67
2021/11/28 16:25:42;;;;;;;2.15;1.40;;;21.60;26.10;22.10;91786.00;;;;10338691;28;47266;-67
2021/11/28 16:30:48;;;;;;;1.85;1.30;;;21.60;26.10;22.10;91808.00;;;;10338734;28;46915;-68
2021/11/28 16:35:50;;;;;;;2.60;1.58;;;21.60;26.10;22.10;91816.00;;;;10357100;28;46640;-65
2021/11/28 16:40:51;;;;;;;2.45;1.50;;;21.60;26.10;22.10;91816.00;;;;10363222;28;46767;-67
2021/11/28 16:45:52;;;;;;;1.27;1.00;;;21.60;26.30;22.10;91823.00;;;;10355418;28;46805;-66
2021/11/28 16:50:52;;;;;;;2.83;1.17;;;21.60;26.10;22.10;91813.00;;;;10352528;28;46938;-67
2021/11/28 16:55:53;;;;;;;1.60;1.10;;;21.60;25.70;22.00;91839.00;;;;10351423;28;45351;-71
2021/11/28 17:00:54;;;;;;;1.08;0.80;;;21.50;25.70;22.00;91832.00;;;;10354948;28;46495;-66
2021/11/28 17:05:56;;;;;;;1.30;0.90;;;21.50;25.60;22.00;91836.00;;;;10354476;28;45257;-65
2021/11/28 17:10:57;;;;;;;1.38;0.80;;;21.50;25.60;22.00;91842.00;;;;10354741;28;45399;-67
2021/11/28 17:15:58;;;;;;;1.13;0.82;;;21.50;25.50;22.00;91857.00;;;;10396144;28;46700;-67
2021/11/28 17:20:58;;;;;;;1.38;0.80;;;21.50;25.50;22.00;91842.00;;;;10395533;28;45539;-66
2021/11/28 17:25:59;;;;;;;0.90;0.80;;;21.50;25.50;22.00;91835.00;;;;10394244;28;45243;-62
2021/11/28 17:31:00;;;;;;;1.38;0.90;;;21.50;25.60;22.00;91853.00;;;;10394790;28;45378;-66
2021/11/28 17:36:01;;;;;;;1.08;0.70;;;21.50;25.60;22.00;91854.00;;;;10377329;28;46766;-64
2021/11/28 17:41:03;;;;;;;1.33;0.70;;;21.50;25.70;22.00;91864.00;;;;10391933;28;46210;-67
2021/11/28 17:46:03;;;;;;;2.33;1.00;;;21.50;25.80;22.00;91861.00;;;;10396319;28;45347;-69
2021/11/28 17:51:04;;;;;;;1.02;0.80;;;21.50;25.70;22.00;91865.00;;;;10377775;28;48508;-68
2021/11/28 17:56:05;;;;;;;1.23;0.70;;;21.50;25.80;22.00;91848.00;;;;10394861;28;46428;-70
2021/11/28 18:01:06;;;;;;;1.05;0.73;;;21.50;25.70;22.00;91859.00;;;;10393281;28;45264;-65
2021/11/28 18:06:08;;;;;;;0.60;0.57;;;21.50;24.80;22.00;91876.00;;;;10376918;28;47249;-64
2021/11/28 18:11:09;;;;;;;0.65;0.47;;;21.50;25.10;22.10;91865.00;;;;10393136;28;47173;-64
2021/11/28 18:16:10;;;;;;;2.75;0.57;;;21.50;25.00;22.10;91873.00;;;;10393566;28;45158;-64
2021/11/28 18:21:11;;;;;;;0.70;0.55;;;21.50;24.90;22.10;91904.00;;;;10393728;28;45200;-64
2021/11/28 18:26:12;;;;;;;0.60;0.40;;;21.50;25.50;22.00;91878.00;;;;10394259;28;45333;-71
2021/11/28 18:31:14;;;;;;;0.50;0.40;;;21.50;25.90;22.00;91903.00;;;;10393282;28;45333;-62
2021/11/28 18:36:15;;;;;;;1.02;0.55;;;21.50;25.70;22.00;91896.00;;;;10392901;28;46465;-63
2021/11/28 18:41:19;;;;;;;1.13;0.88;;;21.40;25.80;22.00;91892.00;;;;10393193;28;47462;-63
2021/11/28 18:46:21;;;;;;;2.13;1.08;;;21.50;25.90;22.00;91904.00;;;;10392587;28;45347;-62
2021/11/28 18:51:23;;;;;;;2.47;0.90;;;21.40;25.70;22.10;91905.00;;;;10357842;28;46882;-63
2021/11/28 18:56:24;;;;;;;1.20;0.80;;;21.50;25.50;22.30;91902.00;;;;10310726;28;45404;-63
2021/11/28 19:01:25;;;;;;;1.00;0.85;;;21.60;25.60;22.30;91902.00;;;;10310892;28;45471;-63
2021/11/28 19:06:26;;;;;;;1.48;1.02;;;21.70;25.60;22.40;91915.00;;;;10338991;28;45180;-63
2021/11/28 19:11:27;;;;;;;1.13;0.70;;;21.80;25.70;22.40;91920.00;;;;10355087;28;45194;-62
2021/11/28 19:16:29;;;;;;;1.38;0.60;;;21.80;25.70;22.40;91904.00;;;;10389810;28;45222;-63
2021/11/28 19:21:31;;;;;;;1.10;0.70;;;21.90;25.80;22.50;91908.00;;;;10393259;28;45190;-63
2021/11/28 19:26:32;;;;;;;2.00;0.70;;;21.90;25.90;22.50;91913.00;;;;10408231;28;45296;-63
2021/11/28 19:31:32;;;;;;;2.55;0.70;;;21.90;25.90;22.50;91918.00;;;;10391599;28;46632;-63
2021/11/28 19:36:33;;;;;;;0.90;0.70;;;21.90;25.90;22.50;91932.00;;;;10374805;28;46921;-63
2021/11/28 19:41:34;;;;;;;0.50;0.50;;;21.90;26.00;22.50;91928.00;;;;10393620;28;45595;-63
2021/11/28 19:46:36;;;;;;;1.15;0.73;;;21.90;26.00;22.50;91930.00;;;;10398632;28;46771;-63
2021/11/28 19:51:37;;;;;;;0.88;0.52;;;22.00;26.10;22.50;91937.00;;;;10398411;28;46299;-63
2021/11/28 19:56:38;;;;;;;0.85;0.55;;;22.00;26.10;22.50;91941.00;;;;10399133;28;45646;-62
2021/11/28 20:01:40;;;;;;;0.70;0.40;;;22.00;26.20;22.50;91950.00;;;;10398469;28;45313;-63
2021/11/28 20:06:40;;;;;;;0.95;0.55;;;22.00;26.20;22.50;91953.00;;;;10397459;28;46154;-61
2021/11/28 20:11:42;;;;;;;0.57;0.50;;;22.00;26.20;22.60;91954.00;;;;10398657;28;45355;-63
2021/11/28 20:16:45;;;;;;;0.75;0.60;;;22.00;26.30;22.60;91960.00;;;;10380586;28;47249;-63
2021/11/28 20:21:45;;;;;;;0.85;0.50;;;22.00;26.30;22.60;91955.00;;;;10380874;28;47734;-63
2021/11/28 20:26:46;;;;;;;1.60;0.63;;;22.00;26.30;22.60;91971.00;;;;10396546;28;47155;-63
2021/11/28 20:31:48;;;;;;;0.73;0.52;;;22.00;26.30;22.60;91975.00;;;;10397040;28;47012;-62
2021/11/28 20:36:54;;;;;;;0.77;0.55;;;22.00;26.40;22.60;91967.00;;;;10396560;28;45440;-62
2021/11/28 20:41:55;;;;;;;0.70;0.60;;;22.00;26.40;22.60;91963.00;;;;10368126;28;45337;-63
2021/11/28 20:46:56;;;;;;;0.90;0.55;;;22.00;26.40;22.60;91962.00;;;;10354907;28;48358;-63
2021/11/28 20:51:56;;;;;;;0.60;0.50;;;22.00;26.40;22.60;91968.00;;;;10354768;28;47247;-63
2021/11/28 20:56:57;;;;;;;0.47;0.45;;;22.00;26.40;22.70;91985.00;;;;10354511;28;47538;-63
2021/11/28 21:01:57;;;;;;;0.40;0.40;;;22.00;26.40;22.70;91977.00;;;;10356154;28;46028;-63
2021/11/28 21:06:58;;;;;;;0.60;0.50;;;22.00;26.40;22.70;91966.00;;;;10354410;28;45706;-63
2021/11/28 21:11:59;;;;;;;0.40;0.40;;;22.10;26.50;22.60;91982.00;;;;10364936;28;45387;-63
2021/11/28 21:17:05;;;;;;;0.40;0.40;;;22.10;26.50;22.70;91980.00;;;;10395999;28;45402;-63
2021/11/28 21:22:05;;;;;;;0.75;0.40;;;22.10;26.50;22.60;91985.00;;;;10395578;28;47387;-63
2021/11/28 21:27:06;;;;;;;1.10;0.40;;;22.00;26.50;22.60;91997.00;;;;10394345;28;47263;-63
2021/11/28 21:32:07;;;;;;;1.35;0.40;;;22.00;26.50;22.50;91995.00;;;;10351204;28;47077;-63
2021/11/28 21:37:08;;;;;;;0.45;0.32;;;22.00;26.50;22.50;92012.00;;;;10392368;28;48070;-63
2021/11/28 21:42:09;;;;;;;0.80;0.50;;;21.90;26.50;22.40;92010.00;;;;10406428;28;46609;-63
2021/11/28 21:47:10;;;;;;;0.28;0.28;;;21.80;26.50;22.40;92012.00;;;;10394996;28;46053;-62
2021/11/28 21:52:11;;;;;;;0.38;0.30;;;21.90;26.60;22.40;92025.00;;;;10394008;28;45330;-62
2021/11/28 21:57:12;;;;;;;0.50;0.40;;;21.80;26.60;22.40;92007.00;;;;10395520;28;45319;-61
2021/11/28 22:02:12;;;;;;;0.40;0.40;;;21.80;26.70;22.40;92022.00;;;;10395368;28;45313;-62
2021/11/28 22:07:13;;;;;;;0.52;0.30;;;21.80;26.70;22.40;92036.00;;;;10394143;28;45149;-61
2021/11/28 22:12:15;;;;;;;0.77;0.40;;;21.80;26.70;22.30;92014.00;;;;10396435;28;46135;-62
2021/11/28 22:17:16;;;;;;;0.52;0.43;;;21.80;26.70;22.30;92036.00;;;;10393189;28;47847;-62
2021/11/28 22:22:16;;;;;;;0.40;0.38;;;21.70;26.70;22.30;92046.00;;;;10394239;28;45252;-60